Time;durP1;ratioP1;P1;durP2;ratioP2;P2;SDS_P1;SDS_P2;PMS_P1;PMS_P2;Temp;Humidity;BMP_temperature;BMP_pressure;BME280_temperature;BME280_humidity;BME280_pressure;Samples;Min_cycle;Max_cycle;Signal;HPM_P1;HPM_P2
2023/04/13 00:01:08;;;;;;;2.60;1.20;;;4.10;99.90;;;;;;5058788;28;20033;-67
2023/04/13 00:03:35;;;;;;;2.10;1.20;;;4.10;99.90;;;;;;5056257;28;20029;-68
2023/04/13 00:06:01;;;;;;;5.93;0.95;;;4.10;99.90;;;;;;5060102;28;20048;-67
2023/04/13 00:08:29;;;;;;;3.58;1.20;;;4.00;99.90;;;;;;5061369;28;20136;-66
2023/04/13 00:10:56;;;;;;;5.30;1.13;;;4.00;99.90;;;;;;5060242;28;20102;-65
2023/04/13 00:13:23;;;;;;;3.47;1.08;;;4.10;99.90;;;;;;5059677;28;20041;-66
2023/04/13 00:15:49;;;;;;;4.38;1.30;;;4.10;99.90;;;;;;5061545;28;20507;-68
2023/04/13 00:18:15;;;;;;;3.45;1.02;;;4.10;99.90;;;;;;5051645;28;20048;-67
2023/04/13 00:20:42;;;;;;;5.10;1.00;;;4.10;99.90;;;;;;5047286;28;20037;-67
2023/04/13 00:23:08;;;;;;;3.17;1.10;;;4.10;99.90;;;;;;5048194;28;20072;-65
2023/04/13 00:25:34;;;;;;;2.15;0.90;;;4.00;99.90;;;;;;5047723;28;20053;-66
2023/04/13 00:28:05;;;;;;;4.55;1.35;;;4.00;99.90;;;;;;5048359;28;20047;-64
2023/04/13 00:30:31;;;;;;;1.65;0.90;;;4.00;99.90;;;;;;5046584;28;20131;-66
2023/04/13 00:32:56;;;;;;;7.68;1.40;;;4.00;99.90;;;;;;5045572;28;20411;-66
2023/04/13 00:35:25;;;;;;;3.08;0.88;;;4.00;99.90;;;;;;5042265;28;20041;-66
2023/04/13 00:37:53;;;;;;;3.03;1.10;;;4.00;99.90;;;;;;5046789;28;20077;-65
2023/04/13 00:40:19;;;;;;;4.00;1.20;;;4.00;99.90;;;;;;5047568;28;20056;-66
2023/04/13 00:42:47;;;;;;;2.33;0.93;;;4.00;99.90;;;;;;5043927;28;20480;-66
2023/04/13 00:45:13;;;;;;;5.20;1.02;;;4.00;99.90;;;;;;5043433;28;20049;-65
2023/04/13 00:47:40;;;;;;;10.10;0.98;;;3.90;99.90;;;;;;5041095;28;20631;-63
2023/04/13 00:50:07;;;;;;;4.18;0.80;;;4.00;99.90;;;;;;5044596;28;20075;-66
2023/04/13 00:52:39;;;;;;;4.10;1.00;;;4.00;99.90;;;;;;5043318;28;20110;-64
2023/04/13 00:55:06;;;;;;;3.47;0.93;;;3.90;99.90;;;;;;5043398;28;20837;-64
2023/04/13 00:57:33;;;;;;;4.38;0.90;;;3.90;99.90;;;;;;5043771;28;20055;-64
2023/04/13 01:00:08;;;;;;;5.82;1.20;;;3.80;99.90;;;;;;5045177;28;20037;-64
2023/04/13 01:02:33;;;;;;;2.20;1.00;;;3.80;99.90;;;;;;5044925;28;20033;-66
2023/04/13 01:04:59;;;;;;;4.70;1.17;;;3.80;99.90;;;;;;5046804;28;20106;-64
2023/04/13 01:07:41;;;;;;;7.47;1.17;;;3.80;99.90;;;;;;5047205;28;20047;-65
2023/04/13 01:10:16;;;;;;;3.40;1.25;;;3.80;99.90;;;;;;5047503;28;20036;-66
2023/04/13 01:13:08;;;;;;;2.53;1.10;;;3.80;99.90;;;;;;5044182;28;20497;-65
2023/04/13 01:15:37;;;;;;;4.85;1.55;;;3.80;99.90;;;;;;5045598;28;20132;-65
2023/04/13 01:18:07;;;;;;;4.10;1.00;;;3.70;99.90;;;;;;5048288;28;20037;-66
2023/04/13 01:20:36;;;;;;;6.60;1.42;;;3.70;99.90;;;;;;5046722;28;20040;-65
2023/04/13 01:23:08;;;;;;;3.70;1.50;;;3.70;99.90;;;;;;5044507;28;20037;-65
2023/04/13 01:25:39;;;;;;;4.90;1.50;;;3.70;99.90;;;;;;5045717;28;20052;-65
2023/04/13 01:28:06;;;;;;;4.28;1.35;;;3.70;99.90;;;;;;5047473;28;20123;-64
2023/04/13 01:30:34;;;;;;;5.80;1.10;;;3.60;99.90;;;;;;5044713;28;20047;-65
2023/04/13 01:33:02;;;;;;;3.63;0.93;;;3.70;99.90;;;;;;5043987;28;20124;-65
2023/04/13 01:35:29;;;;;;;4.65;1.20;;;3.60;99.90;;;;;;5045091;28;20041;-66
2023/04/13 01:37:58;;;;;;;4.43;1.15;;;3.60;99.90;;;;;;5047008;28;20056;-66
2023/04/13 01:40:26;;;;;;;3.58;1.40;;;3.60;99.90;;;;;;5045098;28;20041;-65
2023/04/13 01:42:52;;;;;;;5.20;0.90;;;3.60;99.90;;;;;;5045999;28;20063;-67
2023/04/13 01:45:28;;;;;;;3.28;0.90;;;3.70;99.90;;;;;;5045504;28;20037;-65
2023/04/13 01:48:10;;;;;;;3.22;1.20;;;3.70;99.90;;;;;;5047258;28;20044;-64
2023/04/13 01:50:47;;;;;;;4.43;1.08;;;3.80;99.90;;;;;;5045474;28;20126;-66
2023/04/13 01:53:18;;;;;;;;;;;3.90;99.90;;;;;;5044721;28;20063;-67
2023/04/13 01:55:44;;;;;;;5.03;1.10;;;4.00;99.90;;;;;;5046581;28;19917;-66
2023/04/13 01:58:12;;;;;;;1.88;0.77;;;4.10;99.90;;;;;;5040237;28;20056;-65
2023/04/13 02:00:39;;;;;;;3.47;1.00;;;4.10;99.90;;;;;;5044296;28;20080;-66
2023/04/13 02:03:06;;;;;;;3.33;0.95;;;4.10;99.90;;;;;;5044517;28;20051;-67
2023/04/13 02:05:35;;;;;;;3.90;1.17;;;4.20;99.90;;;;;;5046768;28;20719;-65
2023/04/13 02:08:04;;;;;;;4.40;1.50;;;4.20;99.90;;;;;;5046094;28;20041;-66
2023/04/13 02:10:30;;;;;;;2.22;1.15;;;4.20;99.90;;;;;;5045155;28;20037;-66
2023/04/13 02:12:56;;;;;;;9.32;1.42;;;4.30;99.90;;;;;;5042197;28;20124;-66
2023/04/13 02:15:22;;;;;;;3.58;0.90;;;4.30;99.90;;;;;;5044412;28;20436;-66
2023/04/13 02:17:47;;;;;;;2.25;0.73;;;4.30;99.90;;;;;;5045421;28;20833;-67
2023/04/13 02:20:13;;;;;;;3.20;1.30;;;4.30;99.90;;;;;;5046902;28;20044;-65
2023/04/13 02:22:40;;;;;;;5.95;1.13;;;4.20;99.90;;;;;;5044321;28;20036;-66
2023/04/13 02:25:14;;;;;;;3.47;0.98;;;4.20;99.90;;;;;;5044833;28;20132;-66
2023/04/13 02:27:40;;;;;;;4.88;1.20;;;4.20;99.90;;;;;;5044499;28;20132;-65
2023/04/13 02:30:10;;;;;;;2.72;1.10;;;4.20;99.90;;;;;;5045801;28;20032;-65
2023/04/13 02:32:38;;;;;;;3.15;1.40;;;4.30;99.90;;;;;;5063378;28;20867;-66
2023/04/13 02:35:04;;;;;;;4.05;0.93;;;4.30;99.90;;;;;;5065819;28;20409;-65
2023/04/13 02:37:31;;;;;;;6.80;0.90;;;4.30;99.90;;;;;;5062217;28;20052;-65
2023/04/13 02:39:57;;;;;;;4.20;0.98;;;4.30;99.90;;;;;;5061026;28;20103;-66
2023/04/13 02:42:23;;;;;;;10.35;2.22;;;4.30;99.90;;;;;;5065370;28;20124;-65
2023/04/13 02:44:49;;;;;;;7.63;0.82;;;4.30;99.90;;;;;;5065091;28;20055;-65
2023/04/13 02:47:15;;;;;;;6.68;1.05;;;4.30;99.90;;;;;;5066385;28;20167;-65
2023/04/13 02:49:42;;;;;;;4.22;0.93;;;4.20;99.90;;;;;;5066212;28;20052;-65
2023/04/13 02:52:08;;;;;;;5.65;1.10;;;4.20;99.90;;;;;;5062286;28;20041;-65
2023/04/13 02:54:34;;;;;;;2.67;1.13;;;4.20;99.90;;;;;;5064302;28;20564;-64
2023/04/13 02:57:00;;;;;;;4.85;1.25;;;4.20;99.90;;;;;;5066804;28;20550;-64
2023/04/13 02:59:27;;;;;;;7.47;1.73;;;4.20;99.90;;;;;;5063958;28;20055;-64
2023/04/13 03:01:57;;;;;;;2.80;1.85;;;4.20;99.90;;;;;;5062406;28;20573;-64
2023/04/13 03:04:23;;;;;;;3.40;0.90;;;4.20;99.90;;;;;;5062502;28;20044;-67
2023/04/13 03:06:49;;;;;;;6.35;1.27;;;4.20;99.90;;;;;;5064071;28;20060;-65
2023/04/13 03:09:16;;;;;;;6.25;1.10;;;4.30;99.90;;;;;;5065560;28;20617;-67
2023/04/13 03:11:42;;;;;;;5.88;0.88;;;4.30;99.90;;;;;;5062536;28;20047;-64
2023/04/13 03:14:11;;;;;;;6.85;1.08;;;4.30;99.90;;;;;;5064883;28;20458;-65
2023/04/13 03:16:37;;;;;;;3.92;1.10;;;4.40;99.90;;;;;;5066463;28;20045;-65
2023/04/13 03:19:04;;;;;;;4.28;1.00;;;4.40;99.90;;;;;;5066209;28;20059;-65
2023/04/13 03:21:30;;;;;;;5.35;0.98;;;4.40;99.90;;;;;;5063627;28;20115;-64
2023/04/13 03:23:56;;;;;;;3.97;1.08;;;4.40;99.90;;;;;;5064678;28;20095;-64
2023/04/13 03:26:24;;;;;;;4.65;0.70;;;4.50;99.90;;;;;;5059476;28;20051;-64
2023/04/13 03:28:50;;;;;;;1.60;0.68;;;4.50;99.90;;;;;;5065914;28;20044;-64
2023/04/13 03:31:16;;;;;;;5.60;0.88;;;4.50;99.90;;;;;;5064656;28;20044;-65
2023/04/13 03:33:42;;;;;;;7.53;1.00;;;4.50;99.90;;;;;;5066312;28;20052;-65
2023/04/13 03:36:09;;;;;;;4.15;0.80;;;4.50;99.90;;;;;;5065057;28;20119;-64
2023/04/13 03:38:35;;;;;;;5.55;1.20;;;4.60;99.90;;;;;;5066324;28;20052;-65
2023/04/13 03:41:00;;;;;;;3.35;1.10;;;4.60;99.90;;;;;;5063795;28;20043;-64
2023/04/13 03:43:26;;;;;;;2.53;0.73;;;4.60;99.90;;;;;;5063490;28;20075;-65
2023/04/13 03:45:52;;;;;;;3.72;0.88;;;4.60;99.90;;;;;;5066076;28;20041;-65
2023/04/13 03:48:18;;;;;;;4.65;0.90;;;4.60;99.90;;;;;;5066158;28;20036;-64
2023/04/13 03:50:44;;;;;;;2.97;0.60;;;4.60;99.90;;;;;;5064224;28;20043;-64
2023/04/13 03:53:09;;;;;;;3.88;0.70;;;4.60;99.90;;;;;;5064708;28;20044;-65
2023/04/13 03:55:36;;;;;;;6.10;1.00;;;4.60;99.90;;;;;;5067983;28;20044;-65
2023/04/13 03:58:01;;;;;;;1.83;0.80;;;4.60;99.90;;;;;;5067924;28;20032;-63
2023/04/13 04:00:28;;;;;;;2.13;0.75;;;4.60;99.90;;;;;;5067016;28;20515;-65
2023/04/13 04:02:53;;;;;;;2.40;0.75;;;4.70;99.90;;;;;;5064153;28;20144;-65
2023/04/13 04:05:19;;;;;;;7.07;1.02;;;4.60;99.90;;;;;;5078052;28;20547;-65
2023/04/13 04:07:44;;;;;;;2.50;0.70;;;4.60;99.90;;;;;;5069607;28;20454;-65
2023/04/13 04:10:10;;;;;;;2.65;0.80;;;4.60;99.90;;;;;;5068503;28;20044;-65
2023/04/13 04:12:36;;;;;;;5.40;0.80;;;4.70;99.90;;;;;;5064560;28;20044;-64
2023/04/13 04:15:01;;;;;;;7.90;0.90;;;4.60;99.90;;;;;;5066764;28;20119;-64
2023/04/13 04:17:27;;;;;;;1.02;0.70;;;4.70;99.90;;;;;;5049940;28;20060;-64
2023/04/13 04:19:52;;;;;;;4.30;0.95;;;4.70;99.90;;;;;;5065860;28;20028;-65
2023/04/13 04:22:18;;;;;;;2.70;0.60;;;4.70;99.90;;;;;;5065340;28;20037;-65
2023/04/13 04:24:44;;;;;;;5.65;1.10;;;4.60;99.90;;;;;;5068092;28;20501;-64
2023/04/13 04:27:13;;;;;;;3.38;0.88;;;4.60;99.90;;;;;;5068902;28;20064;-67
2023/04/13 04:29:38;;;;;;;3.45;1.00;;;4.60;99.90;;;;;;5067696;28;20041;-65
2023/04/13 04:32:09;;;;;;;2.13;0.82;;;4.50;99.90;;;;;;5064843;28;20037;-66
2023/04/13 04:34:35;;;;;;;3.75;1.27;;;4.50;99.90;;;;;;5067509;28;20052;-64
2023/04/13 04:37:05;;;;;;;2.28;1.02;;;4.40;99.90;;;;;;5065205;28;20044;-65
2023/04/13 04:39:33;;;;;;;5.70;0.80;;;4.40;99.90;;;;;;5067901;28;20072;-65
2023/04/13 04:42:02;;;;;;;4.60;0.73;;;4.50;99.90;;;;;;5046264;28;20040;-64
2023/04/13 04:44:30;;;;;;;5.68;0.88;;;4.50;99.90;;;;;;5048865;28;20036;-66
2023/04/13 04:46:58;;;;;;;2.67;0.90;;;4.50;99.90;;;;;;5064064;28;20044;-66
2023/04/13 04:49:28;;;;;;;4.53;0.93;;;4.50;99.90;;;;;;5068462;28;20036;-66
2023/04/13 04:51:54;;;;;;;7.53;1.35;;;4.50;99.90;;;;;;5065976;28;20141;-65
2023/04/13 04:54:20;;;;;;;4.43;1.17;;;4.50;99.90;;;;;;5067759;28;20093;-65
2023/04/13 04:56:47;;;;;;;5.18;1.30;;;4.50;99.90;;;;;;5068134;28;20458;-66
2023/04/13 04:59:13;;;;;;;4.43;0.95;;;4.50;99.90;;;;;;5068065;28;20052;-65
2023/04/13 05:01:39;;;;;;;3.38;1.00;;;4.60;99.90;;;;;;5063560;28;20044;-64
2023/04/13 05:04:06;;;;;;;6.38;0.90;;;4.60;99.90;;;;;;5065529;28;20466;-68
2023/04/13 05:06:32;;;;;;;2.13;0.70;;;4.60;99.90;;;;;;5064468;28;20048;-66
2023/04/13 05:09:00;;;;;;;4.50;1.10;;;4.60;99.90;;;;;;5068502;28;20480;-65
2023/04/13 05:11:27;;;;;;;4.45;0.80;;;4.70;99.90;;;;;;5064802;28;20450;-66
2023/04/13 05:13:55;;;;;;;3.47;0.88;;;4.70;99.90;;;;;;5063252;28;20041;-65
2023/04/13 05:16:21;;;;;;;3.38;0.80;;;4.80;99.90;;;;;;5062296;28;20044;-66
2023/04/13 05:18:47;;;;;;;0.95;0.57;;;4.80;99.90;;;;;;5056592;28;20040;-67
2023/04/13 05:21:14;;;;;;;2.47;0.70;;;4.80;99.90;;;;;;5066253;28;20044;-64
2023/04/13 05:23:40;;;;;;;8.77;0.88;;;4.80;99.90;;;;;;5064118;28;20036;-65
2023/04/13 05:26:11;;;;;;;3.78;0.60;;;4.90;99.90;;;;;;5067000;28;20047;-66
2023/04/13 05:28:37;;;;;;;2.92;0.90;;;4.80;99.90;;;;;;5066983;28;20048;-65
2023/04/13 05:31:05;;;;;;;1.60;0.60;;;4.70;99.90;;;;;;5063782;28;20625;-63
2023/04/13 05:33:34;;;;;;;2.75;0.73;;;4.70;99.90;;;;;;5054900;28;20040;-64
2023/04/13 05:36:01;;;;;;;1.33;0.50;;;4.70;99.90;;;;;;5066564;28;20056;-63
2023/04/13 05:38:26;;;;;;;1.88;0.68;;;4.60;99.90;;;;;;5067925;28;20037;-65
2023/04/13 05:40:53;;;;;;;1.45;0.60;;;4.50;99.90;;;;;;5065788;28;20047;-64
2023/04/13 05:43:19;;;;;;;3.15;0.82;;;4.50;99.90;;;;;;5066523;28;20044;-65
2023/04/13 05:45:46;;;;;;;1.85;0.70;;;4.60;99.90;;;;;;5065745;28;20456;-64
2023/04/13 05:48:12;;;;;;;2.58;0.57;;;4.70;99.90;;;;;;5066956;28;20095;-64
2023/04/13 05:50:38;;;;;;;3.47;0.90;;;4.90;99.90;;;;;;5064119;28;20133;-64
2023/04/13 05:53:07;;;;;;;3.65;1.20;;;5.10;99.90;;;;;;5072774;28;20051;-64
2023/04/13 05:55:33;;;;;;;1.48;0.65;;;5.30;99.90;;;;;;5067327;28;20048;-65
2023/04/13 05:58:00;;;;;;;3.67;0.63;;;5.50;99.90;;;;;;5061464;28;20033;-68
2023/04/13 06:00:26;;;;;;;1.25;0.43;;;5.40;99.90;;;;;;5062499;28;20055;-65
2023/04/13 06:02:53;;;;;;;2.17;0.68;;;5.20;99.90;;;;;;5064332;28;20047;-64
2023/04/13 06:05:19;;;;;;;1.88;0.60;;;5.20;99.90;;;;;;5064645;28;20036;-63
2023/04/13 06:07:45;;;;;;;1.15;0.57;;;5.10;99.90;;;;;;5066652;28;20049;-65
2023/04/13 06:10:13;;;;;;;2.40;0.60;;;5.00;99.90;;;;;;5065766;28;20037;-63
2023/04/13 06:12:40;;;;;;;2.15;0.40;;;4.90;99.90;;;;;;5056351;28;20218;-65
2023/04/13 06:15:06;;;;;;;3.50;0.70;;;4.90;99.90;;;;;;5064513;28;20071;-64
2023/04/13 06:17:32;;;;;;;4.43;0.88;;;4.90;99.90;;;;;;5053335;28;20048;-63
2023/04/13 06:19:57;;;;;;;2.00;0.73;;;4.90;99.90;;;;;;5057484;28;20565;-63
2023/04/13 06:22:23;;;;;;;;;;;4.90;99.90;;;;;;5064251;28;20068;-64
2023/04/13 06:24:50;;;;;;;0.93;0.60;;;4.90;99.90;;;;;;5066236;28;19920;-65
2023/04/13 06:27:16;;;;;;;4.20;0.68;;;4.90;99.90;;;;;;5065392;28;20190;-65
2023/04/13 06:29:42;;;;;;;1.13;0.68;;;5.00;99.90;;;;;;5065960;28;20040;-64
2023/04/13 06:32:08;;;;;;;4.05;0.60;;;5.20;99.90;;;;;;5063186;28;20036;-64
2023/04/13 06:34:34;;;;;;;2.47;0.55;;;5.20;99.90;;;;;;5064487;28;20039;-64
2023/04/13 06:37:00;;;;;;;3.40;1.33;;;5.20;99.90;;;;;;5064570;28;20071;-64
2023/04/13 06:39:26;;;;;;;0.95;0.40;;;5.20;99.90;;;;;;5067680;28;20039;-64
2023/04/13 06:41:52;;;;;;;3.00;0.60;;;5.30;99.90;;;;;;5065568;28;20384;-65
2023/04/13 06:44:18;;;;;;;2.63;0.70;;;5.40;99.90;;;;;;5053388;28;20051;-67
2023/04/13 06:46:43;;;;;;;4.88;0.80;;;5.30;99.90;;;;;;5061464;28;20044;-66
2023/04/13 06:49:09;;;;;;;;;;;5.30;99.90;;;;;;5064836;28;20047;-64
2023/04/13 06:51:35;;;;;;;3.03;0.47;;;5.40;99.90;;;;;;5050255;28;20773;-65
2023/04/13 06:54:01;;;;;;;2.58;0.50;;;5.40;99.90;;;;;;5060129;28;20040;-64
2023/04/13 06:56:26;;;;;;;1.95;0.50;;;5.40;99.90;;;;;;5060343;28;20094;-65
2023/04/13 06:58:52;;;;;;;1.88;0.50;;;5.30;99.90;;;;;;5063078;28;20056;-64
2023/04/13 07:01:17;;;;;;;3.28;0.60;;;5.30;99.90;;;;;;5055845;28;20048;-64
2023/04/13 07:03:43;;;;;;;2.00;0.55;;;5.30;99.90;;;;;;5064017;28;20044;-63
2023/04/13 07:06:09;;;;;;;2.55;0.75;;;5.20;99.90;;;;;;5063892;28;20752;-66
2023/04/13 07:08:35;;;;;;;1.45;0.40;;;5.30;99.90;;;;;;5062432;28;20111;-65
2023/04/13 07:11:01;;;;;;;3.45;0.40;;;5.30;99.90;;;;;;5062253;28;20045;-65
2023/04/13 07:13:27;;;;;;;2.00;0.50;;;5.40;99.90;;;;;;5064248;28;20037;-65
2023/04/13 07:15:53;;;;;;;1.25;0.43;;;5.50;99.90;;;;;;5065148;28;20419;-62
2023/04/13 07:18:18;;;;;;;0.85;0.40;;;5.60;99.90;;;;;;5064334;28;20090;-64
2023/04/13 07:20:46;;;;;;;2.25;0.50;;;5.70;99.90;;;;;;5063421;28;20596;-64
2023/04/13 07:23:12;;;;;;;4.57;0.60;;;5.70;99.90;;;;;;5059796;28;20526;-65
2023/04/13 07:25:37;;;;;;;3.30;0.80;;;5.70;99.90;;;;;;5063113;28;20040;-66
2023/04/13 07:28:03;;;;;;;1.63;0.50;;;5.60;99.90;;;;;;5067128;28;20117;-64
2023/04/13 07:30:29;;;;;;;;;;;5.60;99.90;;;;;;5067161;28;20046;-65
2023/04/13 07:32:55;;;;;;;1.70;0.60;;;5.70;99.90;;;;;;5065760;28;20199;-65
2023/04/13 07:35:20;;;;;;;0.98;0.40;;;5.70;99.90;;;;;;5064651;28;20028;-62
2023/04/13 07:37:48;;;;;;;4.75;0.45;;;5.80;99.90;;;;;;5067118;28;20040;-64
2023/04/13 07:40:15;;;;;;;2.47;0.43;;;5.90;99.90;;;;;;5060081;28;20037;-64
2023/04/13 07:42:41;;;;;;;1.58;0.40;;;6.20;99.90;;;;;;5062785;28;20071;-63
2023/04/13 07:45:09;;;;;;;1.77;0.60;;;6.30;99.90;;;;;;5066194;28;20072;-61
2023/04/13 07:47:35;;;;;;;2.30;0.57;;;6.50;99.90;;;;;;5064634;28;20049;-65
2023/04/13 07:50:01;;;;;;;2.05;0.52;;;6.50;99.90;;;;;;5065988;28;20047;-66
2023/04/13 07:52:27;;;;;;;;;;;6.70;99.90;;;;;;5065330;28;20032;-63
2023/04/13 07:54:52;;;;;;;1.95;0.50;;;6.80;99.90;;;;;;5068532;28;19916;-65
2023/04/13 07:57:20;;;;;;;0.73;0.40;;;6.80;99.90;;;;;;5064068;28;20044;-65
2023/04/13 07:59:46;;;;;;;2.13;0.55;;;6.70;99.90;;;;;;5080423;28;20052;-65
2023/04/13 08:02:12;;;;;;;3.92;0.77;;;6.70;99.90;;;;;;5046102;28;20113;-65
2023/04/13 08:04:38;;;;;;;4.95;0.75;;;6.80;99.90;;;;;;5062937;28;20045;-65
2023/04/13 08:07:03;;;;;;;;;;;6.60;99.90;;;;;;5066699;28;20041;-65
2023/04/13 08:09:39;;;;;;;3.42;0.60;;;6.60;99.90;;;;;;5068798;28;20011;-65
2023/04/13 08:12:05;;;;;;;2.85;0.55;;;6.90;99.90;;;;;;5065528;28;20753;-65
2023/04/13 08:14:31;;;;;;;1.67;0.40;;;6.90;99.90;;;;;;5067594;28;20051;-65
2023/04/13 08:16:56;;;;;;;;;;;6.90;99.90;;;;;;5068729;28;20040;-65
2023/04/13 08:19:22;;;;;;;5.18;1.02;;;6.90;99.90;;;;;;5069173;28;20380;-65
2023/04/13 08:21:48;;;;;;;;;;;6.90;99.90;;;;;;5068611;28;20086;-62
2023/04/13 08:24:14;;;;;;;4.00;0.60;;;7.50;99.90;;;;;;5068627;28;19924;-65
2023/04/13 08:26:39;;;;;;;;;;;7.60;99.90;;;;;;5068770;28;20295;-65
2023/04/13 08:29:05;;;;;;;2.50;0.60;;;7.60;99.90;;;;;;5068420;28;20214;-66
2023/04/13 08:31:31;;;;;;;;;;;7.70;99.90;;;;;;5063718;28;20465;-66
2023/04/13 08:33:57;;;;;;;2.55;0.70;;;8.40;99.90;;;;;;5063555;28;19917;-66
2023/04/13 08:36:22;;;;;;;;;;;9.00;99.90;;;;;;5069189;28;20507;-67
2023/04/13 08:38:48;;;;;;;1.20;1.05;;;9.40;99.90;;;;;;5068187;28;19959;-65
2023/04/13 08:41:15;;;;;;;;;;;9.60;99.90;;;;;;5067367;28;20036;-65
2023/04/13 08:43:41;;;;;;;;;;;9.00;99.90;;;;;;5066350;28;19920;-66
2023/04/13 08:46:07;;;;;;;1.92;0.55;;;8.20;99.90;;;;;;5067672;28;20341;-64
2023/04/13 08:48:38;;;;;;;2.03;0.50;;;7.80;99.90;;;;;;5069010;28;20127;-64
2023/04/13 08:51:04;;;;;;;2.80;0.93;;;7.80;99.90;;;;;;5066321;28;20098;-64
2023/04/13 08:53:30;;;;;;;2.97;0.50;;;7.60;99.90;;;;;;5062697;28;20133;-64
2023/04/13 08:55:58;;;;;;;;;;;7.30;99.90;;;;;;5064068;28;20045;-65
2023/04/13 08:58:26;;;;;;;1.52;0.40;;;7.30;99.90;;;;;;5064093;28;19923;-65
2023/04/13 09:00:52;;;;;;;2.33;0.60;;;7.40;99.90;;;;;;5062128;28;20064;-66
2023/04/13 09:03:22;;;;;;;;;;;7.60;99.90;;;;;;5064856;28;20098;-67
2023/04/13 09:06:00;;;;;;;1.65;0.50;;;7.70;99.90;;;;;;5063514;28;19931;-66
2023/04/13 09:08:33;;;;;;;1.38;0.30;;;7.60;99.90;;;;;;5067890;28;20051;-66
2023/04/13 09:10:59;;;;;;;5.10;0.60;;;7.60;99.90;;;;;;5062976;28;21008;-66
2023/04/13 09:13:25;;;;;;;;;;;7.60;99.90;;;;;;5064471;28;20119;-65
2023/04/13 09:15:51;;;;;;;0.82;0.30;;;7.80;99.90;;;;;;5066019;28;19920;-65
2023/04/13 09:18:16;;;;;;;;;;;8.10;99.90;;;;;;5068496;28;20044;-65
2023/04/13 09:20:42;;;;;;;1.70;0.47;;;8.40;99.90;;;;;;5064311;28;19924;-65
2023/04/13 09:23:13;;;;;;;;;;;8.80;99.90;;;;;;5065523;28;20047;-65
2023/04/13 09:25:40;;;;;;;2.35;0.77;;;9.00;99.90;;;;;;5067273;28;20118;-66
2023/04/13 09:28:07;;;;;;;2.75;0.88;;;9.10;99.90;;;;;;5067139;28;20748;-66
2023/04/13 09:30:33;;;;;;;1.50;0.57;;;9.30;99.90;;;;;;5064809;28;20333;-68
2023/04/13 09:33:03;;;;;;;;;;;9.30;99.90;;;;;;5066443;28;20680;-65
2023/04/13 09:35:30;;;;;;;2.55;0.68;;;9.30;99.90;;;;;;5067075;28;20559;-65
2023/04/13 09:37:56;;;;;;;1.13;0.50;;;9.50;99.90;;;;;;5067099;28;20072;-65
2023/04/13 09:40:22;;;;;;;;;;;9.60;99.90;;;;;;5066771;28;20098;-64
2023/04/13 09:42:56;;;;;;;0.57;0.30;;;9.50;99.90;;;;;;5063562;28;19916;-66
2023/04/13 09:45:22;;;;;;;1.00;0.52;;;9.60;99.90;;;;;;5060496;28;20041;-64
2023/04/13 09:47:47;;;;;;;1.52;0.70;;;9.30;99.90;;;;;;5046415;28;20561;-63
2023/04/13 09:50:17;;;;;;;;;;;9.10;99.90;;;;;;5049477;28;20033;-63
2023/04/13 09:52:44;;;;;;;2.00;0.55;;;8.90;99.90;;;;;;5064067;28;19970;-66
2023/04/13 09:55:19;;;;;;;1.77;0.60;;;9.10;99.90;;;;;;5060750;28;20066;-66
2023/04/13 09:57:45;;;;;;;1.75;0.60;;;9.10;99.90;;;;;;5069155;28;20037;-64
2023/04/13 10:00:16;;;;;;;;;;;9.20;99.90;;;;;;5063193;28;20036;-61
2023/04/13 10:02:42;;;;;;;0.85;0.60;;;9.40;99.90;;;;;;5059405;28;20790;-64
2023/04/13 10:05:08;;;;;;;;;;;9.60;99.90;;;;;;5064463;28;20041;-64
2023/04/13 10:07:35;;;;;;;1.53;0.67;;;9.70;99.90;;;;;;5063392;28;20434;-64
2023/04/13 10:10:02;;;;;;;4.25;0.60;;;9.60;99.90;;;;;;5061926;28;20044;-63
2023/04/13 10:12:33;;;;;;;3.42;1.55;;;9.50;99.90;;;;;;5063334;28;20076;-62
2023/04/13 10:15:17;;;;;;;3.28;0.73;;;9.40;99.90;;;;;;5064045;28;20075;-65
2023/04/13 10:17:53;;;;;;;1.15;0.60;;;9.40;99.90;;;;;;5044331;28;20613;-63
2023/04/13 10:20:19;;;;;;;;;;;9.30;99.90;;;;;;5056541;28;20048;-64
2023/04/13 10:22:45;;;;;;;3.00;0.45;;;9.60;99.90;;;;;;5055812;28;19916;-64
2023/04/13 10:25:14;;;;;;;6.57;0.60;;;9.80;99.90;;;;;;5056892;28;20036;-64
2023/04/13 10:27:40;;;;;;;1.95;0.65;;;9.70;99.90;;;;;;5057156;28;20476;-64
2023/04/13 10:30:16;;;;;;;1.90;0.60;;;9.70;99.90;;;;;;5051774;28;20089;-64
2023/04/13 10:32:42;;;;;;;1.27;0.50;;;9.80;99.90;;;;;;5060963;28;20071;-64
2023/04/13 10:35:11;;;;;;;2.72;0.70;;;9.90;99.90;;;;;;5067128;28;20044;-63
2023/04/13 10:37:39;;;;;;;2.17;0.55;;;10.10;99.90;;;;;;5060984;28;20051;-64
2023/04/13 10:40:12;;;;;;;0.82;0.43;;;9.80;99.90;;;;;;5053463;28;20050;-64
2023/04/13 10:42:43;;;;;;;1.40;0.60;;;9.90;99.90;;;;;;5062303;28;20825;-64
2023/04/13 10:45:17;;;;;;;0.80;0.43;;;10.20;99.90;;;;;;5058006;28;20040;-65
2023/04/13 10:47:43;;;;;;;1.17;0.63;;;10.30;99.90;;;;;;5062365;28;20570;-64
2023/04/13 10:50:16;;;;;;;;;;;10.40;99.90;;;;;;5063241;28;20044;-65
2023/04/13 10:52:59;;;;;;;1.42;1.05;;;10.30;99.90;;;;;;5057358;28;19920;-64
2023/04/13 10:55:26;;;;;;;2.38;0.90;;;10.20;99.90;;;;;;5060263;28;20085;-63
2023/04/13 10:57:53;;;;;;;1.35;1.10;;;10.30;99.90;;;;;;5056546;28;20044;-63
2023/04/13 11:00:22;;;;;;;3.33;1.38;;;10.10;99.90;;;;;;5052390;28;20117;-65
2023/04/13 11:02:49;;;;;;;3.05;1.77;;;10.10;99.90;;;;;;5051515;28;20108;-64
2023/04/13 11:05:21;;;;;;;3.30;1.58;;;10.00;99.90;;;;;;5051449;28;20565;-65
2023/04/13 11:07:49;;;;;;;2.78;1.42;;;10.20;99.90;;;;;;5054997;28;20093;-65
2023/04/13 11:10:22;;;;;;;6.55;2.25;;;10.30;99.90;;;;;;5053887;28;20040;-65
2023/04/13 11:12:52;;;;;;;2.08;1.73;;;10.10;99.90;;;;;;5049402;28;20109;-64
2023/04/13 11:15:35;;;;;;;5.13;2.08;;;9.90;99.90;;;;;;5053402;28;20552;-67
2023/04/13 11:18:02;;;;;;;2.40;1.60;;;9.90;99.90;;;;;;5055558;28;20531;-65
2023/04/13 11:20:34;;;;;;;2.63;1.70;;;9.80;99.90;;;;;;5052701;28;20040;-64
2023/04/13 11:23:02;;;;;;;1.80;1.25;;;10.20;99.90;;;;;;5051328;28;20033;-64
2023/04/13 11:25:29;;;;;;;3.25;1.25;;;10.60;99.90;;;;;;5055821;28;20037;-65
2023/04/13 11:27:59;;;;;;;4.50;1.65;;;10.70;99.90;;;;;;5064428;28;20048;-68
2023/04/13 11:30:25;;;;;;;2.92;1.48;;;10.50;99.90;;;;;;5061704;28;20040;-66
2023/04/13 11:32:52;;;;;;;4.93;1.88;;;10.40;99.90;;;;;;5062328;28;20403;-65
2023/04/13 11:35:18;;;;;;;4.65;1.48;;;10.30;99.90;;;;;;5062710;28;20127;-64
2023/04/13 11:37:47;;;;;;;4.10;1.40;;;10.40;99.90;;;;;;5062358;28;20051;-64
2023/04/13 11:40:19;;;;;;;7.00;1.33;;;10.20;99.90;;;;;;5062174;28;20109;-64
2023/04/13 11:42:47;;;;;;;3.42;1.25;;;10.40;99.90;;;;;;5059238;28;20440;-66
2023/04/13 11:45:17;;;;;;;7.35;1.55;;;10.50;99.90;;;;;;5058623;28;20043;-64
2023/04/13 11:47:44;;;;;;;2.45;0.77;;;10.60;99.90;;;;;;5056364;28;20044;-65
2023/04/13 11:50:11;;;;;;;1.73;1.08;;;10.90;99.90;;;;;;5059536;28;20583;-64
2023/04/13 11:52:38;;;;;;;2.00;1.00;;;11.00;99.90;;;;;;5057549;28;21003;-66
2023/04/13 11:55:05;;;;;;;3.47;1.25;;;10.90;99.90;;;;;;5061137;28;20044;-65
2023/04/13 11:57:34;;;;;;;1.85;1.02;;;10.60;99.90;;;;;;5057661;28;20055;-64
2023/04/13 12:00:00;;;;;;;2.20;0.95;;;10.60;99.90;;;;;;5062199;28;20206;-64
2023/04/13 12:02:27;;;;;;;;;;;10.60;99.90;;;;;;5057501;28;20713;-65
2023/04/13 12:04:53;;;;;;;3.50;1.50;;;10.70;99.90;;;;;;5060190;28;19920;-66
2023/04/13 12:07:19;;;;;;;;;;;10.90;99.90;;;;;;5061115;28;20044;-65
2023/04/13 12:09:46;;;;;;;2.47;1.23;;;10.80;99.90;;;;;;5062437;28;19928;-65
2023/04/13 12:12:31;;;;;;;5.05;1.42;;;10.60;99.90;;;;;;5058658;28;20798;-64
2023/04/13 12:14:59;;;;;;;5.93;1.58;;;10.60;99.90;;;;;;5062180;28;20056;-64
2023/04/13 12:17:32;;;;;;;5.28;1.48;;;10.80;99.90;;;;;;5060905;28;20040;-63
2023/04/13 12:19:59;;;;;;;4.07;1.30;;;10.70;99.90;;;;;;5061204;28;20444;-64
2023/04/13 12:22:38;;;;;;;4.07;1.35;;;10.40;99.90;;;;;;5063395;28;20098;-65
2023/04/13 12:25:18;;;;;;;3.30;1.40;;;10.10;99.90;;;;;;5065982;28;20044;-65
2023/04/13 12:27:47;;;;;;;3.92;1.42;;;10.00;99.90;;;;;;5064872;28;20186;-65
2023/04/13 12:30:14;;;;;;;4.63;1.15;;;10.00;99.90;;;;;;5064186;28;20120;-64
2023/04/13 12:32:47;;;;;;;1.83;1.05;;;10.00;99.90;;;;;;5058415;28;20037;-64
2023/04/13 12:35:14;;;;;;;2.92;0.70;;;10.00;99.90;;;;;;5057907;28;20447;-63
2023/04/13 12:37:41;;;;;;;1.63;0.82;;;10.20;99.90;;;;;;5069193;28;20047;-64
2023/04/13 12:40:11;;;;;;;2.53;0.82;;;10.40;99.90;;;;;;5071889;28;20127;-63
2023/04/13 12:42:41;;;;;;;3.03;0.80;;;10.40;99.90;;;;;;5080297;28;20068;-63
2023/04/13 12:45:07;;;;;;;3.42;1.00;;;10.10;99.90;;;;;;5064739;28;20037;-64
2023/04/13 12:47:34;;;;;;;3.63;1.23;;;10.00;99.90;;;;;;5075951;28;20048;-64
2023/04/13 12:49:59;;;;;;;8.23;1.20;;;10.20;99.90;;;;;;5073986;28;20049;-63
2023/04/13 12:52:27;;;;;;;;;;;10.30;99.90;;;;;;5063201;28;20120;-63
2023/04/13 12:54:54;;;;;;;4.05;1.70;;;10.40;99.90;;;;;;5063447;28;19919;-65
2023/04/13 12:57:20;;;;;;;3.90;1.85;;;10.50;99.90;;;;;;5064401;28;20048;-63
2023/04/13 12:59:45;;;;;;;;;;;10.50;99.90;;;;;;5070493;28;20353;-63
2023/04/13 13:02:11;;;;;;;5.18;1.42;;;10.60;99.90;;;;;;5070433;28;19959;-65
2023/04/13 13:04:36;;;;;;;;;;;10.70;99.90;;;;;;5059006;28;20520;-65